sensor_id;sensor_type;location;lat;lon;timestamp;temperature;humidity
65470;DHT22;52067;50.710;14.492;2023-01-29T00:01:07;-2.11;82.26
65470;DHT22;52067;50.710;14.492;2023-01-29T00:03:33;-2.08;82.28
65470;DHT22;52067;50.710;14.492;2023-01-29T00:05:59;-2.21;83.11
65470;DHT22;52067;50.710;14.492;2023-01-29T00:08:25;-2.20;83.29
65470;DHT22;52067;50.710;14.492;2023-01-29T00:10:51;-2.18;83.20
65470;DHT22;52067;50.710;14.492;2023-01-29T00:13:17;-2.28;83.95
65470;DHT22;52067;50.710;14.492;2023-01-29T00:15:52;-2.21;84.62
65470;DHT22;52067;50.710;14.492;2023-01-29T00:18:17;-2.17;84.62
65470;DHT22;52067;50.710;14.492;2023-01-29T00:20:43;-2.31;84.28
65470;DHT22;52067;50.710;14.492;2023-01-29T00:23:08;-2.24;83.65
65470;DHT22;52067;50.710;14.492;2023-01-29T00:25:33;-2.24;83.29
65470;DHT22;52067;50.710;14.492;2023-01-29T00:27:59;-2.24;83.30
65470;DHT22;52067;50.710;14.492;2023-01-29T00:30:24;-2.18;83.24
65470;DHT22;52067;50.710;14.492;2023-01-29T00:32:49;-2.20;83.29
65470;DHT22;52067;50.710;14.492;2023-01-29T00:35:15;-2.35;83.83
65470;DHT22;52067;50.710;14.492;2023-01-29T00:37:40;-2.18;83.94
65470;DHT22;52067;50.710;14.492;2023-01-29T00:40:06;-2.10;83.24
65470;DHT22;52067;50.710;14.492;2023-01-29T00:42:32;-2.03;83.12
65470;DHT22;52067;50.710;14.492;2023-01-29T00:45:15;-2.11;82.84
65470;DHT22;52067;50.710;14.492;2023-01-29T00:47:41;-2.10;82.99
65470;DHT22;52067;50.710;14.492;2023-01-29T00:50:08;-2.18;83.49
65470;DHT22;52067;50.710;14.492;2023-01-29T00:52:35;-2.08;83.55
65470;DHT22;52067;50.710;14.492;2023-01-29T00:55:06;-2.10;82.86
65470;DHT22;52067;50.710;14.492;2023-01-29T00:57:33;-2.11;82.96
65470;DHT22;52067;50.710;14.492;2023-01-29T00:59:59;-2.20;83.11
65470;DHT22;52067;50.710;14.492;2023-01-29T01:02:25;-2.17;83.15
65470;DHT22;52067;50.710;14.492;2023-01-29T01:05:10;-2.08;83.13
65470;DHT22;52067;50.710;14.492;2023-01-29T01:07:42;-2.06;83.09
65470;DHT22;52067;50.710;14.492;2023-01-29T01:10:12;-2.11;83.64
65470;DHT22;52067;50.710;14.492;2023-01-29T01:12:49;-2.17;83.40
65470;DHT22;52067;50.710;14.492;2023-01-29T01:15:16;-2.25;84.40
65470;DHT22;52067;50.710;14.492;2023-01-29T01:17:41;-2.08;83.58
65470;DHT22;52067;50.710;14.492;2023-01-29T01:20:07;-2.10;82.98
65470;DHT22;52067;50.710;14.492;2023-01-29T01:22:33;-1.87;83.01
65470;DHT22;52067;50.710;14.492;2023-01-29T01:24:58;-2.00;82.92
65470;DHT22;52067;50.710;14.492;2023-01-29T01:27:24;-2.03;82.61
65470;DHT22;52067;50.710;14.492;2023-01-29T01:29:49;-1.82;82.84
65470;DHT22;52067;50.710;14.492;2023-01-29T01:32:15;-1.82;81.87
65470;DHT22;52067;50.710;14.492;2023-01-29T01:34:40;-1.83;81.52
65470;DHT22;52067;50.710;14.492;2023-01-29T01:37:06;-1.87;81.64
65470;DHT22;52067;50.710;14.492;2023-01-29T01:39:31;-1.76;81.88
65470;DHT22;52067;50.710;14.492;2023-01-29T01:41:56;-1.90;81.82
65470;DHT22;52067;50.710;14.492;2023-01-29T01:44:51;-1.80;82.05
65470;DHT22;52067;50.710;14.492;2023-01-29T01:47:21;-1.75;81.66
65470;DHT22;52067;50.710;14.492;2023-01-29T01:49:47;-1.76;81.75
65470;DHT22;52067;50.710;14.492;2023-01-29T01:52:14;-1.72;81.78
65470;DHT22;52067;50.710;14.492;2023-01-29T01:54:41;-1.76;81.82
65470;DHT22;52067;50.710;14.492;2023-01-29T01:57:09;-1.73;81.86
65470;DHT22;52067;50.710;14.492;2023-01-29T01:59:42;-1.70;81.48
65470;DHT22;52067;50.710;14.492;2023-01-29T02:02:10;-1.69;81.84
65470;DHT22;52067;50.710;14.492;2023-01-29T02:04:54;-1.94;82.76
65470;DHT22;52067;50.710;14.492;2023-01-29T02:07:46;-1.97;83.06
65470;DHT22;52067;50.710;14.492;2023-01-29T02:10:38;-1.85;82.28
65470;DHT22;52067;50.710;14.492;2023-01-29T02:13:06;-1.82;82.26
65470;DHT22;52067;50.710;14.492;2023-01-29T02:15:32;-1.73;82.03
65470;DHT22;52067;50.710;14.492;2023-01-29T02:17:58;-1.82;82.33
65470;DHT22;52067;50.710;14.492;2023-01-29T02:20:29;-1.94;83.13
65470;DHT22;52067;50.710;14.492;2023-01-29T02:26:18;-2.07;83.57
65470;DHT22;52067;50.710;14.492;2023-01-29T02:28:56;-1.87;82.91
65470;DHT22;52067;50.710;14.492;2023-01-29T02:31:51;-1.77;82.48
65470;DHT22;52067;50.710;14.492;2023-01-29T02:37:08;-2.06;84.48
65470;DHT22;52067;50.710;14.492;2023-01-29T02:39:38;-2.01;83.82
65470;DHT22;52067;50.710;14.492;2023-01-29T02:42:34;-1.85;83.26
65470;DHT22;52067;50.710;14.492;2023-01-29T02:45:14;-1.91;83.30
65470;DHT22;52067;50.710;14.492;2023-01-29T02:54:03;-2.14;83.64
65470;DHT22;52067;50.710;14.492;2023-01-29T02:56:10;-2.14;84.15
65470;DHT22;52067;50.710;14.492;2023-01-29T02:58:42;-1.93;83.81
65470;DHT22;52067;50.710;14.492;2023-01-29T03:01:14;-1.89;83.84
65470;DHT22;52067;50.710;14.492;2023-01-29T03:03:44;-2.04;83.84
65470;DHT22;52067;50.710;14.492;2023-01-29T03:06:31;-2.17;84.06
65470;DHT22;52067;50.710;14.492;2023-01-29T03:09:01;-2.41;84.18
65470;DHT22;52067;50.710;14.492;2023-01-29T03:11:34;-2.45;84.55
65470;DHT22;52067;50.710;14.492;2023-01-29T03:14:23;-2.18;82.83
65470;DHT22;52067;50.710;14.492;2023-01-29T03:16:51;-2.17;80.18
65470;DHT22;52067;50.710;14.492;2023-01-29T03:19:26;-2.24;80.22
65470;DHT22;52067;50.710;14.492;2023-01-29T03:21:56;-2.27;80.11
65470;DHT22;52067;50.710;14.492;2023-01-29T03:27:36;-2.30;79.71
65470;DHT22;52067;50.710;14.492;2023-01-29T03:30:21;-2.34;80.25
65470;DHT22;52067;50.710;14.492;2023-01-29T03:33:09;-2.30;80.72
65470;DHT22;52067;50.710;14.492;2023-01-29T03:35:40;-2.41;80.12
65470;DHT22;52067;50.710;14.492;2023-01-29T03:38:09;-2.37;79.78
65470;DHT22;52067;50.710;14.492;2023-01-29T03:40:58;-2.40;80.45
65470;DHT22;52067;50.710;14.492;2023-01-29T03:43:32;-2.40;78.93
65470;DHT22;52067;50.710;14.492;2023-01-29T03:48:58;-2.41;79.10
65470;DHT22;52067;50.710;14.492;2023-01-29T03:54:24;-2.44;78.11
65470;DHT22;52067;50.710;14.492;2023-01-29T04:01:59;-2.58;77.67
65470;DHT22;52067;50.710;14.492;2023-01-29T04:04:29;-2.46;78.21
65470;DHT22;52067;50.710;14.492;2023-01-29T04:07:01;-2.46;77.23
65470;DHT22;52067;50.710;14.492;2023-01-29T04:09:31;-2.41;77.20
65470;DHT22;52067;50.710;14.492;2023-01-29T04:12:04;-2.37;77.37
65470;DHT22;52067;50.710;14.492;2023-01-29T04:14:33;-2.44;77.05
65470;DHT22;52067;50.710;14.492;2023-01-29T04:17:01;-2.44;76.38
65470;DHT22;52067;50.710;14.492;2023-01-29T04:19:27;-2.46;76.12
65470;DHT22;52067;50.710;14.492;2023-01-29T04:22:01;-2.46;75.97
65470;DHT22;52067;50.710;14.492;2023-01-29T04:24:28;-2.44;76.73
65470;DHT22;52067;50.710;14.492;2023-01-29T04:30:00;-2.46;76.76
65470;DHT22;52067;50.710;14.492;2023-01-29T04:35:14;-2.55;77.49
65470;DHT22;52067;50.710;14.492;2023-01-29T04:38:11;-2.58;77.33
65470;DHT22;52067;50.710;14.492;2023-01-29T04:40:44;-2.54;77.11
65470;DHT22;52067;50.710;14.492;2023-01-29T04:48:31;-2.52;77.20
65470;DHT22;52067;50.710;14.492;2023-01-29T04:51:13;-2.55;76.41
65470;DHT22;52067;50.710;14.492;2023-01-29T04:53:48;-2.64;76.41
65470;DHT22;52067;50.710;14.492;2023-01-29T04:56:38;-2.59;77.04
65470;DHT22;52067;50.710;14.492;2023-01-29T04:59:08;-2.56;77.64
65470;DHT22;52067;50.710;14.492;2023-01-29T05:01:37;-2.55;77.20
65470;DHT22;52067;50.710;14.492;2023-01-29T05:04:12;-2.52;76.62
65470;DHT22;52067;50.710;14.492;2023-01-29T05:06:39;-2.55;76.36
65470;DHT22;52067;50.710;14.492;2023-01-29T05:09:06;-2.61;76.37
65470;DHT22;52067;50.710;14.492;2023-01-29T05:11:33;-2.62;76.65
65470;DHT22;52067;50.710;14.492;2023-01-29T05:14:01;-2.69;76.86
65470;DHT22;52067;50.710;14.492;2023-01-29T05:16:36;-2.82;76.81
65470;DHT22;52067;50.710;14.492;2023-01-29T05:19:08;-2.87;77.33
65470;DHT22;52067;50.710;14.492;2023-01-29T05:21:34;-2.93;77.22
65470;DHT22;52067;50.710;14.492;2023-01-29T05:24:18;-2.93;77.44
65470;DHT22;52067;50.710;14.492;2023-01-29T05:26:46;-2.96;77.46
65470;DHT22;52067;50.710;14.492;2023-01-29T05:29:30;-3.08;77.52
65470;DHT22;52067;50.710;14.492;2023-01-29T05:31:56;-3.14;78.09
65470;DHT22;52067;50.710;14.492;2023-01-29T05:34:21;-3.35;79.16
65470;DHT22;52067;50.710;14.492;2023-01-29T05:36:47;-3.41;79.29
65470;DHT22;52067;50.710;14.492;2023-01-29T05:39:12;-3.44;80.12
65470;DHT22;52067;50.710;14.492;2023-01-29T05:41:38;-3.54;79.98
65470;DHT22;52067;50.710;14.492;2023-01-29T05:44:03;-3.47;79.80
65470;DHT22;52067;50.710;14.492;2023-01-29T05:46:29;-3.51;79.71
65470;DHT22;52067;50.710;14.492;2023-01-29T05:48:54;-3.47;79.73
65470;DHT22;52067;50.710;14.492;2023-01-29T05:51:19;-3.47;79.82
65470;DHT22;52067;50.710;14.492;2023-01-29T05:53:45;-3.41;80.12
65470;DHT22;52067;50.710;14.492;2023-01-29T05:56:10;-3.33;79.72
65470;DHT22;52067;50.710;14.492;2023-01-29T05:58:36;-3.34;79.89
65470;DHT22;52067;50.710;14.492;2023-01-29T06:01:14;-3.28;79.13
65470;DHT22;52067;50.710;14.492;2023-01-29T06:03:40;-3.62;80.40
65470;DHT22;52067;50.710;14.492;2023-01-29T06:06:05;-3.76;81.26
65470;DHT22;52067;50.710;14.492;2023-01-29T06:08:31;-3.66;81.49
65470;DHT22;52067;50.710;14.492;2023-01-29T06:10:56;-3.71;81.54
65470;DHT22;52067;50.710;14.492;2023-01-29T06:13:21;-3.76;81.12
65470;DHT22;52067;50.710;14.492;2023-01-29T06:15:47;-3.76;80.89
65470;DHT22;52067;50.710;14.492;2023-01-29T06:18:12;-3.68;80.23
65470;DHT22;52067;50.710;14.492;2023-01-29T06:20:38;-3.73;79.93
65470;DHT22;52067;50.710;14.492;2023-01-29T06:23:03;-3.78;79.79
65470;DHT22;52067;50.710;14.492;2023-01-29T06:25:29;-3.83;79.95
65470;DHT22;52067;50.710;14.492;2023-01-29T06:27:54;-3.73;79.84
65470;DHT22;52067;50.710;14.492;2023-01-29T06:30:19;-3.64;80.08
65470;DHT22;52067;50.710;14.492;2023-01-29T06:32:45;-3.78;80.87
65470;DHT22;52067;50.710;14.492;2023-01-29T06:35:10;-3.87;82.57
65470;DHT22;52067;50.710;14.492;2023-01-29T06:37:36;-3.68;81.93
65470;DHT22;52067;50.710;14.492;2023-01-29T06:40:01;-3.43;81.05
65470;DHT22;52067;50.710;14.492;2023-01-29T06:42:27;-3.45;80.30
65470;DHT22;52067;50.710;14.492;2023-01-29T06:44:55;-3.55;80.47
65470;DHT22;52067;50.710;14.492;2023-01-29T06:47:22;-3.59;81.68
65470;DHT22;52067;50.710;14.492;2023-01-29T06:49:48;-3.51;80.86
65470;DHT22;52067;50.710;14.492;2023-01-29T06:52:13;-3.55;81.22
65470;DHT22;52067;50.710;14.492;2023-01-29T06:54:39;-3.37;80.95
65470;DHT22;52067;50.710;14.492;2023-01-29T06:57:04;-3.55;82.19
65470;DHT22;52067;50.710;14.492;2023-01-29T06:59:29;-3.37;81.67
65470;DHT22;52067;50.710;14.492;2023-01-29T07:01:55;-3.50;81.64
65470;DHT22;52067;50.710;14.492;2023-01-29T07:04:20;-3.20;81.81
65470;DHT22;52067;50.710;14.492;2023-01-29T07:06:45;-3.20;81.46
65470;DHT22;52067;50.710;14.492;2023-01-29T07:09:12;-3.21;81.64
65470;DHT22;52067;50.710;14.492;2023-01-29T07:11:40;-3.28;82.27
65470;DHT22;52067;50.710;14.492;2023-01-29T07:14:06;-3.31;82.53
65470;DHT22;52067;50.710;14.492;2023-01-29T07:16:32;-3.17;81.89
65470;DHT22;52067;50.710;14.492;2023-01-29T07:18:57;-2.97;81.45
65470;DHT22;52067;50.710;14.492;2023-01-29T07:21:23;-3.20;81.17
65470;DHT22;52067;50.710;14.492;2023-01-29T07:23:48;-3.08;81.41
65470;DHT22;52067;50.710;14.492;2023-01-29T07:26:15;-2.87;80.74
65470;DHT22;52067;50.710;14.492;2023-01-29T07:28:40;-2.77;79.11
65470;DHT22;52067;50.710;14.492;2023-01-29T07:31:06;-3.00;79.70
65470;DHT22;52067;50.710;14.492;2023-01-29T07:33:32;-2.77;80.69
65470;DHT22;52067;50.710;14.492;2023-01-29T07:35:57;-2.92;81.12
65470;DHT22;52067;50.710;14.492;2023-01-29T07:38:23;-2.46;79.43
65470;DHT22;52067;50.710;14.492;2023-01-29T07:40:51;-2.25;78.76
65470;DHT22;52067;50.710;14.492;2023-01-29T07:43:16;-2.24;78.47
65470;DHT22;52067;50.710;14.492;2023-01-29T07:45:41;-1.98;77.03
65470;DHT22;52067;50.710;14.492;2023-01-29T07:48:10;-2.08;76.42
65470;DHT22;52067;50.710;14.492;2023-01-29T07:50:36;-1.94;76.37
65470;DHT22;52067;50.710;14.492;2023-01-29T07:53:01;-1.76;76.41
65470;DHT22;52067;50.710;14.492;2023-01-29T07:55:27;-1.67;75.41
65470;DHT22;52067;50.710;14.492;2023-01-29T07:57:57;-1.77;75.43
65470;DHT22;52067;50.710;14.492;2023-01-29T08:00:22;-1.65;74.74
65470;DHT22;52067;50.710;14.492;2023-01-29T08:02:48;-1.73;74.97
65470;DHT22;52067;50.710;14.492;2023-01-29T08:05:13;-1.87;75.00
65470;DHT22;52067;50.710;14.492;2023-01-29T08:07:39;-2.21;76.70
65470;DHT22;52067;50.710;14.492;2023-01-29T08:10:08;-2.35;76.60
65470;DHT22;52067;50.710;14.492;2023-01-29T08:12:39;-2.55;77.98
65470;DHT22;52067;50.710;14.492;2023-01-29T08:15:05;-2.54;78.04
65470;DHT22;52067;50.710;14.492;2023-01-29T08:17:30;-2.66;78.35
65470;DHT22;52067;50.710;14.492;2023-01-29T08:19:55;-2.59;77.96
65470;DHT22;52067;50.710;14.492;2023-01-29T08:22:21;-2.52;78.12
65470;DHT22;52067;50.710;14.492;2023-01-29T08:24:46;-2.66;78.79
65470;DHT22;52067;50.710;14.492;2023-01-29T08:27:12;-2.45;77.79
65470;DHT22;52067;50.710;14.492;2023-01-29T08:29:37;-2.62;77.38
65470;DHT22;52067;50.710;14.492;2023-01-29T08:32:03;-2.55;78.44
65470;DHT22;52067;50.710;14.492;2023-01-29T08:34:28;-2.45;77.40
65470;DHT22;52067;50.710;14.492;2023-01-29T08:36:53;-2.35;78.33
65470;DHT22;52067;50.710;14.492;2023-01-29T08:39:19;-2.24;77.58
65470;DHT22;52067;50.710;14.492;2023-01-29T08:41:44;-2.23;77.74
65470;DHT22;52067;50.710;14.492;2023-01-29T08:44:10;-1.77;75.38
65470;DHT22;52067;50.710;14.492;2023-01-29T08:46:35;-1.58;74.34
65470;DHT22;52067;50.710;14.492;2023-01-29T08:49:01;-1.31;72.49
65470;DHT22;52067;50.710;14.492;2023-01-29T08:51:27;-1.30;72.69
65470;DHT22;52067;50.710;14.492;2023-01-29T08:53:52;-1.94;74.50
65470;DHT22;52067;50.710;14.492;2023-01-29T08:56:18;-1.52;74.37
65470;DHT22;52067;50.710;14.492;2023-01-29T08:58:43;-1.51;74.31
65470;DHT22;52067;50.710;14.492;2023-01-29T09:01:11;-1.28;73.66
65470;DHT22;52067;50.710;14.492;2023-01-29T09:03:37;-1.18;73.22
65470;DHT22;52067;50.710;14.492;2023-01-29T09:06:11;-0.70;71.07
65470;DHT22;52067;50.710;14.492;2023-01-29T09:08:37;-1.04;71.73
65470;DHT22;52067;50.710;14.492;2023-01-29T09:11:02;-0.60;70.98
65470;DHT22;52067;50.710;14.492;2023-01-29T09:13:28;-1.14;72.20
65470;DHT22;52067;50.710;14.492;2023-01-29T09:15:53;-0.84;72.52
65470;DHT22;52067;50.710;14.492;2023-01-29T09:18:19;-1.01;70.60
65470;DHT22;52067;50.710;14.492;2023-01-29T09:20:46;-1.46;73.89
65470;DHT22;52067;50.710;14.492;2023-01-29T09:23:11;-0.83;72.66
65470;DHT22;52067;50.710;14.492;2023-01-29T09:25:37;-0.72;71.46
65470;DHT22;52067;50.710;14.492;2023-01-29T09:28:02;-1.31;73.39
65470;DHT22;52067;50.710;14.492;2023-01-29T09:30:28;-1.17;73.31
65470;DHT22;52067;50.710;14.492;2023-01-29T09:32:53;-1.22;74.10
65470;DHT22;52067;50.710;14.492;2023-01-29T09:35:20;-1.25;74.31
65470;DHT22;52067;50.710;14.492;2023-01-29T09:37:49;-0.87;72.82
65470;DHT22;52067;50.710;14.492;2023-01-29T09:40:23;-0.87;74.27
65470;DHT22;52067;50.710;14.492;2023-01-29T09:42:55;-0.65;73.04
65470;DHT22;52067;50.710;14.492;2023-01-29T09:45:24;-0.19;71.31
65470;DHT22;52067;50.710;14.492;2023-01-29T09:47:51;0.09;70.09
65470;DHT22;52067;50.710;14.492;2023-01-29T09:50:22;0.14;70.40
65470;DHT22;52067;50.710;14.492;2023-01-29T09:52:50;-0.18;71.97
65470;DHT22;52067;50.710;14.492;2023-01-29T09:55:24;-0.49;72.35
65470;DHT22;52067;50.710;14.492;2023-01-29T09:57:53;-0.63;72.36
65470;DHT22;52067;50.710;14.492;2023-01-29T10:02:58;-0.45;71.62
65470;DHT22;52067;50.710;14.492;2023-01-29T10:14:27;-0.36;70.72
65470;DHT22;52067;50.710;14.492;2023-01-29T10:22:54;-0.72;71.90
65470;DHT22;52067;50.710;14.492;2023-01-29T10:25:24;-0.60;73.51
65470;DHT22;52067;50.710;14.492;2023-01-29T10:27:52;-0.23;71.53
65470;DHT22;52067;50.710;14.492;2023-01-29T10:30:33;-0.15;71.08
65470;DHT22;52067;50.710;14.492;2023-01-29T10:33:04;-0.39;70.99
65470;DHT22;52067;50.710;14.492;2023-01-29T10:35:40;-0.25;70.51
65470;DHT22;52067;50.710;14.492;2023-01-29T10:40:52;-0.28;71.56
65470;DHT22;52067;50.710;14.492;2023-01-29T10:43:32;-0.65;71.68
65470;DHT22;52067;50.710;14.492;2023-01-29T10:46:22;-0.73;73.06
65470;DHT22;52067;50.710;14.492;2023-01-29T10:49:24;-1.31;76.20
65470;DHT22;52067;50.710;14.492;2023-01-29T11:00:21;-0.56;71.67
65470;DHT22;52067;50.710;14.492;2023-01-29T11:02:49;-0.50;73.29
65470;DHT22;52067;50.710;14.492;2023-01-29T11:05:33;-0.40;71.78
65470;DHT22;52067;50.710;14.492;2023-01-29T11:08:11;-0.38;71.05
65470;DHT22;52067;50.710;14.492;2023-01-29T11:10:48;-0.46;72.68
65470;DHT22;52067;50.710;14.492;2023-01-29T11:13:17;-0.38;71.84
65470;DHT22;52067;50.710;14.492;2023-01-29T11:15:42;-0.43;72.49
65470;DHT22;52067;50.710;14.492;2023-01-29T11:18:10;-0.56;71.79
65470;DHT22;52067;50.710;14.492;2023-01-29T11:20:39;-0.55;72.00
65470;DHT22;52067;50.710;14.492;2023-01-29T11:23:04;-0.50;73.58
65470;DHT22;52067;50.710;14.492;2023-01-29T11:25:30;-0.42;71.71
65470;DHT22;52067;50.710;14.492;2023-01-29T11:28:00;-0.49;73.14
65470;DHT22;52067;50.710;14.492;2023-01-29T11:30:36;-0.42;73.38
65470;DHT22;52067;50.710;14.492;2023-01-29T11:35:34;-0.50;73.11
65470;DHT22;52067;50.710;14.492;2023-01-29T11:38:23;-0.49;71.64
65470;DHT22;52067;50.710;14.492;2023-01-29T11:40:49;-0.65;70.94
65470;DHT22;52067;50.710;14.492;2023-01-29T11:43:31;-0.49;72.33
65470;DHT22;52067;50.710;14.492;2023-01-29T11:46:11;-0.52;71.52
65470;DHT22;52067;50.710;14.492;2023-01-29T11:51:11;-0.56;71.87
65470;DHT22;52067;50.710;14.492;2023-01-29T11:53:49;-0.67;73.16
65470;DHT22;52067;50.710;14.492;2023-01-29T11:56:31;-0.65;72.39
65470;DHT22;52067;50.710;14.492;2023-01-29T11:58:57;-0.81;73.46
65470;DHT22;52067;50.710;14.492;2023-01-29T12:01:37;-0.72;72.54
65470;DHT22;52067;50.710;14.492;2023-01-29T12:04:18;-0.77;74.55
65470;DHT22;52067;50.710;14.492;2023-01-29T12:06:45;-0.65;72.28
65470;DHT22;52067;50.710;14.492;2023-01-29T12:09:21;-0.72;73.23
65470;DHT22;52067;50.710;14.492;2023-01-29T12:11:47;-0.40;71.69
65470;DHT22;52067;50.710;14.492;2023-01-29T12:14:26;-0.43;73.05
65470;DHT22;52067;50.710;14.492;2023-01-29T12:17:12;-0.28;72.07
65470;DHT22;52067;50.710;14.492;2023-01-29T12:19:50;-0.25;70.95
65470;DHT22;52067;50.710;14.492;2023-01-29T12:22:26;-0.38;73.07
65470;DHT22;52067;50.710;14.492;2023-01-29T12:25:02;-0.05;71.00
65470;DHT22;52067;50.710;14.492;2023-01-29T12:30:17;-0.12;69.89
65470;DHT22;52067;50.710;14.492;2023-01-29T12:35:31;-0.62;71.99
65470;DHT22;52067;50.710;14.492;2023-01-29T12:38:09;-0.15;71.13
65470;DHT22;52067;50.710;14.492;2023-01-29T12:40:40;0.09;69.95
65470;DHT22;52067;50.710;14.492;2023-01-29T12:43:15;-0.01;71.19
65470;DHT22;52067;50.710;14.492;2023-01-29T12:45:43;0.40;69.57
65470;DHT22;52067;50.710;14.492;2023-01-29T12:48:17;0.60;67.72
65470;DHT22;52067;50.710;14.492;2023-01-29T12:50:44;0.74;67.39
65470;DHT22;52067;50.710;14.492;2023-01-29T12:53:25;0.92;67.83
65470;DHT22;52067;50.710;14.492;2023-01-29T12:55:56;0.82;67.62
65470;DHT22;52067;50.710;14.492;2023-01-29T12:58:30;0.92;68.07
65470;DHT22;52067;50.710;14.492;2023-01-29T13:01:02;1.09;66.67
65470;DHT22;52067;50.710;14.492;2023-01-29T13:06:08;1.28;66.85
65470;DHT22;52067;50.710;14.492;2023-01-29T13:08:40;1.09;67.90
65470;DHT22;52067;50.710;14.492;2023-01-29T13:11:12;1.10;67.36
65470;DHT22;52067;50.710;14.492;2023-01-29T13:13:51;0.46;69.77
65470;DHT22;52067;50.710;14.492;2023-01-29T13:16:20;0.70;67.71
65470;DHT22;52067;50.710;14.492;2023-01-29T13:19:01;0.57;68.66
65470;DHT22;52067;50.710;14.492;2023-01-29T13:21:35;0.34;69.48
65470;DHT22;52067;50.710;14.492;2023-01-29T13:24:06;0.33;69.16
65470;DHT22;52067;50.710;14.492;2023-01-29T13:26:34;-0.25;70.86
65470;DHT22;52067;50.710;14.492;2023-01-29T13:29:00;0.34;69.23
65470;DHT22;52067;50.710;14.492;2023-01-29T13:31:35;0.51;68.94
65470;DHT22;52067;50.710;14.492;2023-01-29T13:34:10;0.09;71.40
65470;DHT22;52067;50.710;14.492;2023-01-29T13:36:42;0.39;71.51
65470;DHT22;52067;50.710;14.492;2023-01-29T13:41:50;-0.09;71.84
65470;DHT22;52067;50.710;14.492;2023-01-29T13:44:28;0.31;70.93
65470;DHT22;52067;50.710;14.492;2023-01-29T13:46:59;0.72;70.44
65470;DHT22;52067;50.710;14.492;2023-01-29T13:49:46;0.33;69.92
65470;DHT22;52067;50.710;14.492;2023-01-29T13:54:56;-0.19;71.76
65470;DHT22;52067;50.710;14.492;2023-01-29T14:08:35;0.27;70.89
65470;DHT22;52067;50.710;14.492;2023-01-29T14:13:43;0.24;70.62
65470;DHT22;52067;50.710;14.492;2023-01-29T14:18:35;0.22;71.22
65470;DHT22;52067;50.710;14.492;2023-01-29T14:21:05;0.05;72.62
65470;DHT22;52067;50.710;14.492;2023-01-29T14:23:53;0.50;71.96
65470;DHT22;52067;50.710;14.492;2023-01-29T14:26:23;0.58;72.54
65470;DHT22;52067;50.710;14.492;2023-01-29T14:36:49;0.85;69.20
65470;DHT22;52067;50.710;14.492;2023-01-29T14:39:22;0.85;70.54
65470;DHT22;52067;50.710;14.492;2023-01-29T14:41:49;0.70;69.81
65470;DHT22;52067;50.710;14.492;2023-01-29T14:47:20;0.70;69.95
65470;DHT22;52067;50.710;14.492;2023-01-29T14:49:56;0.79;69.32
65470;DHT22;52067;50.710;14.492;2023-01-29T14:52:25;0.44;70.44
65470;DHT22;52067;50.710;14.492;2023-01-29T14:54:53;0.37;71.53
65470;DHT22;52067;50.710;14.492;2023-01-29T14:57:22;0.61;70.14
65470;DHT22;52067;50.710;14.492;2023-01-29T14:59:49;0.22;71.60
65470;DHT22;52067;50.710;14.492;2023-01-29T15:02:39;-0.21;73.12
65470;DHT22;52067;50.710;14.492;2023-01-29T15:05:16;-0.19;72.96
65470;DHT22;52067;50.710;14.492;2023-01-29T15:07:50;-0.21;72.05
65470;DHT22;52067;50.710;14.492;2023-01-29T15:10:42;-0.22;73.48
65470;DHT22;52067;50.710;14.492;2023-01-29T15:13:30;-0.17;73.19
65470;DHT22;52067;50.710;14.492;2023-01-29T15:16:09;-0.22;74.72
65470;DHT22;52067;50.710;14.492;2023-01-29T15:18:41;-0.25;73.73
65470;DHT22;52067;50.710;14.492;2023-01-29T15:21:12;-0.04;73.41
65470;DHT22;52067;50.710;14.492;2023-01-29T15:23:39;0.06;73.02
65470;DHT22;52067;50.710;14.492;2023-01-29T15:26:07;-0.04;73.40
65470;DHT22;52067;50.710;14.492;2023-01-29T15:28:36;-0.04;74.13
65470;DHT22;52067;50.710;14.492;2023-01-29T15:31:05;-0.01;73.41
65470;DHT22;52067;50.710;14.492;2023-01-29T15:33:36;-0.04;73.66
65470;DHT22;52067;50.710;14.492;2023-01-29T15:36:03;0.12;73.42
65470;DHT22;52067;50.710;14.492;2023-01-29T15:38:29;0.22;72.91
65470;DHT22;52067;50.710;14.492;2023-01-29T15:40:56;0.19;72.93
65470;DHT22;52067;50.710;14.492;2023-01-29T15:43:34;0.26;72.49
65470;DHT22;52067;50.710;14.492;2023-01-29T15:46:03;0.30;73.16
65470;DHT22;52067;50.710;14.492;2023-01-29T15:50:57;0.22;72.84
65470;DHT22;52067;50.710;14.492;2023-01-29T15:53:33;0.10;74.83
65470;DHT22;52067;50.710;14.492;2023-01-29T15:55:59;0.12;73.89
65470;DHT22;52067;50.710;14.492;2023-01-29T15:58:30;0.10;72.41
65470;DHT22;52067;50.710;14.492;2023-01-29T16:00:57;0.13;72.74
65470;DHT22;52067;50.710;14.492;2023-01-29T16:03:25;-0.12;75.24
65470;DHT22;52067;50.710;14.492;2023-01-29T16:05:52;-0.33;76.46
65470;DHT22;52067;50.710;14.492;2023-01-29T16:08:20;-0.33;76.74
65470;DHT22;52067;50.710;14.492;2023-01-29T16:10:47;-0.43;76.88
65470;DHT22;52067;50.710;14.492;2023-01-29T16:13:23;-0.17;76.38
65470;DHT22;52067;50.710;14.492;2023-01-29T16:18:45;0.16;73.82
65470;DHT22;52067;50.710;14.492;2023-01-29T16:21:34;0.06;73.81
65470;DHT22;52067;50.710;14.492;2023-01-29T16:24:09;-0.08;74.21
65470;DHT22;52067;50.710;14.492;2023-01-29T16:26:38;0.01;73.89
65470;DHT22;52067;50.710;14.492;2023-01-29T16:29:12;-0.32;75.02
65470;DHT22;52067;50.710;14.492;2023-01-29T16:31:38;-0.22;74.95
65470;DHT22;52067;50.710;14.492;2023-01-29T16:34:09;-0.39;75.35
65470;DHT22;52067;50.710;14.492;2023-01-29T16:36:46;-0.21;75.67
65470;DHT22;52067;50.710;14.492;2023-01-29T16:39:27;-0.14;75.37
65470;DHT22;52067;50.710;14.492;2023-01-29T16:42:19;-0.19;75.64
65470;DHT22;52067;50.710;14.492;2023-01-29T16:44:52;-0.02;75.91
65470;DHT22;52067;50.710;14.492;2023-01-29T16:47:24;-0.08;75.17
65470;DHT22;52067;50.710;14.492;2023-01-29T16:49:55;-0.25;75.67
65470;DHT22;52067;50.710;14.492;2023-01-29T16:52:29;-0.01;75.66
65470;DHT22;52067;50.710;14.492;2023-01-29T16:55:01;-0.14;75.09
65470;DHT22;52067;50.710;14.492;2023-01-29T16:57:34;-0.35;76.53
65470;DHT22;52067;50.710;14.492;2023-01-29T17:00:02;-0.39;76.80
65470;DHT22;52067;50.710;14.492;2023-01-29T17:02:33;-0.35;76.25
65470;DHT22;52067;50.710;14.492;2023-01-29T17:05:04;-0.38;76.53
65470;DHT22;52067;50.710;14.492;2023-01-29T17:07:31;-0.32;76.84
65470;DHT22;52067;50.710;14.492;2023-01-29T17:10:00;-0.23;76.75
65470;DHT22;52067;50.710;14.492;2023-01-29T17:12:27;-0.11;76.75
65470;DHT22;52067;50.710;14.492;2023-01-29T17:14:56;-0.11;75.21
65470;DHT22;52067;50.710;14.492;2023-01-29T17:17:28;-0.33;77.49
65470;DHT22;52067;50.710;14.492;2023-01-29T17:19:54;-0.14;77.11
65470;DHT22;52067;50.710;14.492;2023-01-29T17:22:19;-0.01;76.73
65470;DHT22;52067;50.710;14.492;2023-01-29T17:24:45;0.02;75.44
65470;DHT22;52067;50.710;14.492;2023-01-29T17:27:21;0.01;75.31
65470;DHT22;52067;50.710;14.492;2023-01-29T17:29:47;-0.02;75.41
65470;DHT22;52067;50.710;14.492;2023-01-29T17:32:13;-0.02;75.80
65470;DHT22;52067;50.710;14.492;2023-01-29T17:34:41;-0.09;76.58